sensor_id;sensor_type;location;lat;lon;timestamp;pressure;altitude;pressure_sealevel;temperature;humidity
9035;BME280;4552;43.422;24.592;2023-08-17T00:15:54;99956.00;;;21.68;100.00
9035;BME280;4552;43.422;24.592;2023-08-17T00:18:21;99955.41;;;21.63;100.00
9035;BME280;4552;43.422;24.592;2023-08-17T00:21:02;99940.13;;;21.51;100.00
9035;BME280;4552;43.422;24.592;2023-08-17T00:23:29;99947.13;;;21.38;100.00
9035;BME280;4552;43.422;24.592;2023-08-17T00:32:41;99958.13;;;21.32;100.00
9035;BME280;4552;43.422;24.592;2023-08-17T00:35:08;99954.09;;;21.25;100.00
9035;BME280;4552;43.422;24.592;2023-08-17T00:37:35;99948.19;;;21.04;100.00
9035;BME280;4552;43.422;24.592;2023-08-17T00:40:02;99949.63;;;21.10;100.00
9035;BME280;4552;43.422;24.592;2023-08-17T00:42:29;99955.66;;;21.29;100.00
9035;BME280;4552;43.422;24.592;2023-08-17T00:45:15;99957.88;;;21.21;100.00
9035;BME280;4552;43.422;24.592;2023-08-17T00:47:43;99953.66;;;21.17;100.00
9035;BME280;4552;43.422;24.592;2023-08-17T00:50:10;99955.38;;;21.18;100.00
9035;BME280;4552;43.422;24.592;2023-08-17T00:52:38;99962.59;;;21.16;100.00
9035;BME280;4552;43.422;24.592;2023-08-17T01:18:41;99954.63;;;20.83;100.00
9035;BME280;4552;43.422;24.592;2023-08-17T01:21:10;99955.75;;;20.79;100.00
9035;BME280;4552;43.422;24.592;2023-08-17T01:23:44;99957.47;;;20.80;100.00
9035;BME280;4552;43.422;24.592;2023-08-17T01:26:11;99951.66;;;20.74;100.00
9035;BME280;4552;43.422;24.592;2023-08-17T01:28:52;99952.41;;;20.76;100.00
9035;BME280;4552;43.422;24.592;2023-08-17T01:31:23;99945.78;;;20.67;100.00
9035;BME280;4552;43.422;24.592;2023-08-17T01:33:58;99941.06;;;20.56;100.00
9035;BME280;4552;43.422;24.592;2023-08-17T01:36:30;99945.50;;;20.56;100.00
9035;BME280;4552;43.422;24.592;2023-08-17T01:39:16;99945.59;;;20.54;100.00
9035;BME280;4552;43.422;24.592;2023-08-17T01:41:46;99950.47;;;20.46;100.00
9035;BME280;4552;43.422;24.592;2023-08-17T01:44:15;99968.16;;;20.47;100.00
9035;BME280;4552;43.422;24.592;2023-08-17T01:46:42;99958.06;;;20.54;100.00
9035;BME280;4552;43.422;24.592;2023-08-17T01:49:09;99967.66;;;20.56;100.00
9035;BME280;4552;43.422;24.592;2023-08-17T01:51:38;99954.53;;;20.53;100.00
9035;BME280;4552;43.422;24.592;2023-08-17T01:54:06;99951.69;;;20.56;100.00
9035;BME280;4552;43.422;24.592;2023-08-17T01:56:34;99955.16;;;20.58;100.00
9035;BME280;4552;43.422;24.592;2023-08-17T01:59:01;99952.56;;;20.57;100.00
9035;BME280;4552;43.422;24.592;2023-08-17T02:01:48;99956.53;;;20.66;100.00
9035;BME280;4552;43.422;24.592;2023-08-17T02:04:15;99939.16;;;20.43;100.00
9035;BME280;4552;43.422;24.592;2023-08-17T02:06:42;99955.34;;;20.38;100.00
9035;BME280;4552;43.422;24.592;2023-08-17T02:09:09;99960.66;;;20.38;100.00
9035;BME280;4552;43.422;24.592;2023-08-17T02:15:06;99952.78;;;20.37;100.00
9035;BME280;4552;43.422;24.592;2023-08-17T02:17:33;99957.75;;;20.43;100.00
9035;BME280;4552;43.422;24.592;2023-08-17T02:20:00;99956.09;;;20.40;100.00
9035;BME280;4552;43.422;24.592;2023-08-17T02:22:29;99961.16;;;20.29;100.00
9035;BME280;4552;43.422;24.592;2023-08-17T02:38:39;99970.69;;;20.33;100.00
9035;BME280;4552;43.422;24.592;2023-08-17T02:41:07;99963.81;;;20.29;100.00
9035;BME280;4552;43.422;24.592;2023-08-17T02:43:34;99960.38;;;20.27;100.00
9035;BME280;4552;43.422;24.592;2023-08-17T02:46:03;99946.94;;;20.13;100.00
9035;BME280;4552;43.422;24.592;2023-08-17T02:48:32;99972.06;;;20.40;100.00
9035;BME280;4552;43.422;24.592;2023-08-17T02:50:59;99960.09;;;20.49;100.00
9035;BME280;4552;43.422;24.592;2023-08-17T02:53:30;99967.28;;;20.47;100.00
9035;BME280;4552;43.422;24.592;2023-08-17T02:55:58;99973.47;;;20.47;100.00
9035;BME280;4552;43.422;24.592;2023-08-17T02:58:25;99971.09;;;20.58;100.00
9035;BME280;4552;43.422;24.592;2023-08-17T03:00:52;99980.59;;;20.80;100.00
9035;BME280;4552;43.422;24.592;2023-08-17T03:03:19;99967.09;;;20.83;100.00
9035;BME280;4552;43.422;24.592;2023-08-17T03:05:48;99977.09;;;20.62;100.00
9035;BME280;4552;43.422;24.592;2023-08-17T03:08:24;99973.59;;;20.29;100.00
9035;BME280;4552;43.422;24.592;2023-08-17T03:10:51;99972.72;;;20.28;100.00
9035;BME280;4552;43.422;24.592;2023-08-17T03:13:20;99977.41;;;20.06;100.00
9035;BME280;4552;43.422;24.592;2023-08-17T03:15:47;99981.41;;;20.15;100.00
9035;BME280;4552;43.422;24.592;2023-08-17T03:21:00;99965.53;;;19.96;100.00
9035;BME280;4552;43.422;24.592;2023-08-17T03:23:41;99977.56;;;20.03;100.00
9035;BME280;4552;43.422;24.592;2023-08-17T03:26:09;99973.78;;;19.73;100.00
9035;BME280;4552;43.422;24.592;2023-08-17T03:28:37;99973.88;;;19.72;100.00
9035;BME280;4552;43.422;24.592;2023-08-17T03:31:08;99966.38;;;19.63;100.00
9035;BME280;4552;43.422;24.592;2023-08-17T03:33:37;99973.16;;;19.85;100.00
9035;BME280;4552;43.422;24.592;2023-08-17T03:36:04;99971.63;;;19.81;100.00
9035;BME280;4552;43.422;24.592;2023-08-17T03:38:32;99977.56;;;20.03;100.00
9035;BME280;4552;43.422;24.592;2023-08-17T04:01:12;99980.81;;;20.08;100.00
9035;BME280;4552;43.422;24.592;2023-08-17T04:03:39;99985.38;;;19.89;100.00
9035;BME280;4552;43.422;24.592;2023-08-17T04:06:26;99987.59;;;20.15;100.00
9035;BME280;4552;43.422;24.592;2023-08-17T04:09:01;99991.56;;;20.24;100.00
9035;BME280;4552;43.422;24.592;2023-08-17T04:25:05;99999.78;;;21.02;100.00
9035;BME280;4552;43.422;24.592;2023-08-17T04:27:37;99993.94;;;21.11;100.00
9035;BME280;4552;43.422;24.592;2023-08-17T04:30:06;99997.81;;;21.21;100.00
9035;BME280;4552;43.422;24.592;2023-08-17T04:32:33;100007.44;;;21.39;100.00
9035;BME280;4552;43.422;24.592;2023-08-17T04:35:00;99996.59;;;21.57;100.00
9035;BME280;4552;43.422;24.592;2023-08-17T04:37:27;99994.53;;;21.47;100.00
9035;BME280;4552;43.422;24.592;2023-08-17T04:42:29;100018.06;;;21.70;100.00
9035;BME280;4552;43.422;24.592;2023-08-17T04:44:58;99993.47;;;21.65;100.00
9035;BME280;4552;43.422;24.592;2023-08-17T04:47:30;99995.09;;;21.83;100.00
9035;BME280;4552;43.422;24.592;2023-08-17T04:49:58;100001.41;;;21.82;100.00
9035;BME280;4552;43.422;24.592;2023-08-17T04:52:28;100001.53;;;21.94;100.00
9035;BME280;4552;43.422;24.592;2023-08-17T04:58:19;100009.53;;;22.38;100.00
9035;BME280;4552;43.422;24.592;2023-08-17T05:00:48;99992.44;;;23.12;94.63
9035;BME280;4552;43.422;24.592;2023-08-17T05:03:20;100012.72;;;23.69;92.77
9035;BME280;4552;43.422;24.592;2023-08-17T05:06:01;100020.44;;;24.65;85.85
9035;BME280;4552;43.422;24.592;2023-08-17T05:08:33;100004.38;;;24.65;83.11
9035;BME280;4552;43.422;24.592;2023-08-17T05:11:09;100022.31;;;25.25;80.49
9035;BME280;4552;43.422;24.592;2023-08-17T05:13:41;100016.72;;;26.01;77.02
9035;BME280;4552;43.422;24.592;2023-08-17T05:16:13;100021.59;;;26.41;74.88
9035;BME280;4552;43.422;24.592;2023-08-17T05:18:40;100025.75;;;26.34;73.49
9035;BME280;4552;43.422;24.592;2023-08-17T05:21:10;100033.34;;;26.51;73.17
9035;BME280;4552;43.422;24.592;2023-08-17T05:23:37;100030.25;;;26.90;71.78
9035;BME280;4552;43.422;24.592;2023-08-17T07:53:06;100033.91;;;28.30;60.69
9035;BME280;4552;43.422;24.592;2023-08-17T07:55:33;100024.97;;;28.09;60.27
9035;BME280;4552;43.422;24.592;2023-08-17T08:24:58;100018.03;;;28.47;56.52
9035;BME280;4552;43.422;24.592;2023-08-17T08:37:30;100014.56;;;29.07;53.42
9035;BME280;4552;43.422;24.592;2023-08-17T08:39:58;100007.47;;;29.06;53.06
9035;BME280;4552;43.422;24.592;2023-08-17T08:52:23;100005.84;;;29.73;50.25
9035;BME280;4552;43.422;24.592;2023-08-17T08:54:56;99989.28;;;29.38;50.78
9035;BME280;4552;43.422;24.592;2023-08-17T08:57:27;99992.25;;;29.35;51.31
9035;BME280;4552;43.422;24.592;2023-08-17T08:59:55;99993.81;;;29.28;51.36
9035;BME280;4552;43.422;24.592;2023-08-17T09:02:22;99985.88;;;29.46;51.05
9035;BME280;4552;43.422;24.592;2023-08-17T09:04:49;99987.94;;;29.82;50.32
9035;BME280;4552;43.422;24.592;2023-08-17T09:07:17;99992.50;;;30.10;48.93
9035;BME280;4552;43.422;24.592;2023-08-17T09:09:45;99979.56;;;30.33;49.04
9035;BME280;4552;43.422;24.592;2023-08-17T09:12:12;99976.53;;;30.64;48.01
9035;BME280;4552;43.422;24.592;2023-08-17T09:14:42;99974.22;;;30.79;47.49
9035;BME280;4552;43.422;24.592;2023-08-17T09:17:09;99982.41;;;31.23;46.27
9035;BME280;4552;43.422;24.592;2023-08-17T09:19:48;99989.25;;;31.54;46.03
9035;BME280;4552;43.422;24.592;2023-08-17T09:22:22;99992.06;;;31.26;45.32
9035;BME280;4552;43.422;24.592;2023-08-17T09:24:49;99987.97;;;31.22;45.56
9035;BME280;4552;43.422;24.592;2023-08-17T09:27:17;99976.94;;;31.06;45.95
9035;BME280;4552;43.422;24.592;2023-08-17T09:29:45;99971.53;;;31.06;45.91
9035;BME280;4552;43.422;24.592;2023-08-17T09:32:14;99967.34;;;31.21;45.05
9035;BME280;4552;43.422;24.592;2023-08-17T09:34:41;99963.25;;;31.61;44.36
9035;BME280;4552;43.422;24.592;2023-08-17T09:37:08;99971.69;;;31.76;44.46
9035;BME280;4552;43.422;24.592;2023-08-17T09:39:35;99971.34;;;31.88;42.79
9035;BME280;4552;43.422;24.592;2023-08-17T09:42:03;99964.91;;;32.07;43.60
9035;BME280;4552;43.422;24.592;2023-08-17T09:44:33;99968.66;;;32.32;42.45
9035;BME280;4552;43.422;24.592;2023-08-17T09:47:01;99961.00;;;32.27;41.70
9035;BME280;4552;43.422;24.592;2023-08-17T09:49:31;99966.44;;;32.45;39.95
9035;BME280;4552;43.422;24.592;2023-08-17T09:51:59;99944.09;;;32.33;39.90
9035;BME280;4552;43.422;24.592;2023-08-17T09:54:30;99957.97;;;32.73;39.64
9035;BME280;4552;43.422;24.592;2023-08-17T09:56:57;99952.28;;;32.84;39.01
9035;BME280;4552;43.422;24.592;2023-08-17T09:59:24;99950.81;;;32.72;39.04
9035;BME280;4552;43.422;24.592;2023-08-17T10:01:52;99957.41;;;32.87;38.68
9035;BME280;4552;43.422;24.592;2023-08-17T10:04:22;99961.47;;;32.91;39.14
9035;BME280;4552;43.422;24.592;2023-08-17T10:06:56;99954.41;;;32.47;39.00
9035;BME280;4552;43.422;24.592;2023-08-17T10:09:25;99941.88;;;32.29;39.77
9035;BME280;4552;43.422;24.592;2023-08-17T10:18:52;99940.41;;;31.91;40.02
9035;BME280;4552;43.422;24.592;2023-08-17T10:21:33;99938.47;;;31.83;39.87
9035;BME280;4552;43.422;24.592;2023-08-17T10:24:03;99938.00;;;31.88;40.93
9035;BME280;4552;43.422;24.592;2023-08-17T11:01:31;99911.84;;;32.22;40.44
9035;BME280;4552;43.422;24.592;2023-08-17T11:04:09;99900.56;;;32.52;40.18
9035;BME280;4552;43.422;24.592;2023-08-17T11:06:36;99897.97;;;32.76;39.77
9035;BME280;4552;43.422;24.592;2023-08-17T11:09:06;99899.25;;;32.90;38.84
9035;BME280;4552;43.422;24.592;2023-08-17T11:11:34;99903.59;;;32.49;40.30
9035;BME280;4552;43.422;24.592;2023-08-17T11:14:01;99897.97;;;32.25;40.94
9035;BME280;4552;43.422;24.592;2023-08-17T11:16:28;99892.00;;;31.96;41.33
9035;BME280;4552;43.422;24.592;2023-08-17T11:18:56;99896.59;;;31.96;41.73
9035;BME280;4552;43.422;24.592;2023-08-17T11:21:25;99892.13;;;32.12;41.41
9035;BME280;4552;43.422;24.592;2023-08-17T11:23:55;99886.91;;;32.36;41.52
9035;BME280;4552;43.422;24.592;2023-08-17T11:26:23;99885.75;;;32.21;41.09
9035;BME280;4552;43.422;24.592;2023-08-17T11:28:50;99874.66;;;32.32;40.75
9035;BME280;4552;43.422;24.592;2023-08-17T11:31:18;99877.19;;;32.59;40.90
9035;BME280;4552;43.422;24.592;2023-08-17T11:33:45;99886.31;;;32.50;40.50
9035;BME280;4552;43.422;24.592;2023-08-17T11:36:14;99890.22;;;32.56;39.99
9035;BME280;4552;43.422;24.592;2023-08-17T11:38:42;99866.31;;;32.51;40.03
9035;BME280;4552;43.422;24.592;2023-08-17T11:41:11;99873.34;;;32.36;40.39
9035;BME280;4552;43.422;24.592;2023-08-17T12:07:45;99862.84;;;33.08;38.30
9035;BME280;4552;43.422;24.592;2023-08-17T12:10:22;99847.59;;;33.07;37.68
9035;BME280;4552;43.422;24.592;2023-08-17T12:12:57;99854.53;;;32.68;38.83
9035;BME280;4552;43.422;24.592;2023-08-17T12:15:30;99857.53;;;32.57;38.97
9035;BME280;4552;43.422;24.592;2023-08-17T12:18:00;99844.63;;;32.51;38.58
9035;BME280;4552;43.422;24.592;2023-08-17T12:20:27;99834.25;;;32.47;39.18
9035;BME280;4552;43.422;24.592;2023-08-17T12:22:57;99840.41;;;32.31;39.06
9035;BME280;4552;43.422;24.592;2023-08-17T12:25:41;99827.81;;;32.40;39.12
9035;BME280;4552;43.422;24.592;2023-08-17T12:28:35;99839.06;;;32.61;39.26
9035;BME280;4552;43.422;24.592;2023-08-17T12:31:25;99832.78;;;32.52;38.66
9035;BME280;4552;43.422;24.592;2023-08-17T12:34:07;99822.22;;;32.41;39.11
9035;BME280;4552;43.422;24.592;2023-08-17T12:36:45;99822.59;;;32.46;39.42
9035;BME280;4552;43.422;24.592;2023-08-17T12:39:15;99815.88;;;32.66;37.68
9035;BME280;4552;43.422;24.592;2023-08-17T12:41:45;99816.94;;;32.73;37.86
9035;BME280;4552;43.422;24.592;2023-08-17T12:44:17;99803.88;;;32.77;37.78
9035;BME280;4552;43.422;24.592;2023-08-17T12:46:45;99818.72;;;32.90;37.92
9035;BME280;4552;43.422;24.592;2023-08-17T12:49:12;99820.41;;;32.91;37.37
9035;BME280;4552;43.422;24.592;2023-08-17T12:51:44;99816.38;;;33.11;37.50
9035;BME280;4552;43.422;24.592;2023-08-17T12:54:11;99810.78;;;33.29;35.99
9035;BME280;4552;43.422;24.592;2023-08-17T12:56:43;99817.03;;;33.05;37.16
9035;BME280;4552;43.422;24.592;2023-08-17T12:59:12;99804.84;;;33.17;37.05
9035;BME280;4552;43.422;24.592;2023-08-17T13:01:40;99797.38;;;33.27;37.04
9035;BME280;4552;43.422;24.592;2023-08-17T13:04:07;99816.44;;;33.60;36.46
9035;BME280;4552;43.422;24.592;2023-08-17T13:06:38;99810.69;;;33.55;36.82
9035;BME280;4552;43.422;24.592;2023-08-17T13:09:05;99821.97;;;33.26;36.56
9035;BME280;4552;43.422;24.592;2023-08-17T13:11:32;99826.72;;;33.16;37.35
9035;BME280;4552;43.422;24.592;2023-08-17T13:31:31;99805.03;;;33.32;35.86
9035;BME280;4552;43.422;24.592;2023-08-17T13:34:01;99807.97;;;33.55;36.14
9035;BME280;4552;43.422;24.592;2023-08-17T13:36:31;99796.06;;;33.80;36.20
9035;BME280;4552;43.422;24.592;2023-08-17T13:39:01;99802.50;;;34.11;36.13
9035;BME280;4552;43.422;24.592;2023-08-17T13:41:28;99799.28;;;33.99;35.03
9035;BME280;4552;43.422;24.592;2023-08-17T13:43:55;99804.75;;;33.91;35.25
9035;BME280;4552;43.422;24.592;2023-08-17T13:46:23;99799.44;;;33.66;35.00
9035;BME280;4552;43.422;24.592;2023-08-17T13:48:51;99809.97;;;33.69;34.81
9035;BME280;4552;43.422;24.592;2023-08-17T13:51:19;99797.94;;;33.55;34.91
9035;BME280;4552;43.422;24.592;2023-08-17T13:53:46;99815.38;;;33.36;35.54
9035;BME280;4552;43.422;24.592;2023-08-17T13:56:13;99811.31;;;33.32;35.98
9035;BME280;4552;43.422;24.592;2023-08-17T14:02:02;99805.91;;;33.81;35.11
9035;BME280;4552;43.422;24.592;2023-08-17T14:04:31;99795.03;;;33.89;35.51
9035;BME280;4552;43.422;24.592;2023-08-17T14:06:58;99796.25;;;33.94;34.03
9035;BME280;4552;43.422;24.592;2023-08-17T14:09:25;99798.75;;;33.88;34.29
9035;BME280;4552;43.422;24.592;2023-08-17T14:11:57;99787.59;;;33.75;35.33
9035;BME280;4552;43.422;24.592;2023-08-17T14:53:57;99791.59;;;33.06;36.95
9035;BME280;4552;43.422;24.592;2023-08-17T14:56:24;99781.09;;;33.11;36.70
9035;BME280;4552;43.422;24.592;2023-08-17T14:58:50;99784.81;;;33.18;36.07
9035;BME280;4552;43.422;24.592;2023-08-17T15:01:17;99781.09;;;33.27;35.96
9035;BME280;4552;43.422;24.592;2023-08-17T15:03:50;99777.56;;;33.27;36.24
9035;BME280;4552;43.422;24.592;2023-08-17T15:06:17;99778.56;;;33.34;36.32
9035;BME280;4552;43.422;24.592;2023-08-17T15:08:49;99777.38;;;33.36;36.41
9035;BME280;4552;43.422;24.592;2023-08-17T15:11:21;99775.69;;;33.19;36.86
9035;BME280;4552;43.422;24.592;2023-08-17T15:13:48;99775.84;;;33.18;36.55
9035;BME280;4552;43.422;24.592;2023-08-17T15:16:19;99757.19;;;33.07;36.87
9035;BME280;4552;43.422;24.592;2023-08-17T15:18:51;99770.06;;;33.13;36.66
9035;BME280;4552;43.422;24.592;2023-08-17T15:21:17;99770.44;;;33.18;36.48
9035;BME280;4552;43.422;24.592;2023-08-17T15:23:45;99761.44;;;33.25;36.35
9035;BME280;4552;43.422;24.592;2023-08-17T15:26:11;99769.56;;;33.17;36.29
9035;BME280;4552;43.422;24.592;2023-08-17T15:28:42;99751.94;;;33.13;36.58
9035;BME280;4552;43.422;24.592;2023-08-17T15:31:09;99751.59;;;33.08;36.10
9035;BME280;4552;43.422;24.592;2023-08-17T15:33:45;99756.16;;;33.08;35.94
9035;BME280;4552;43.422;24.592;2023-08-17T15:36:12;99760.06;;;33.13;36.51
9035;BME280;4552;43.422;24.592;2023-08-17T15:38:43;99748.88;;;33.16;35.77
9035;BME280;4552;43.422;24.592;2023-08-17T15:41:10;99750.56;;;33.09;35.74
9035;BME280;4552;43.422;24.592;2023-08-17T15:43:38;99768.38;;;33.12;36.49
9035;BME280;4552;43.422;24.592;2023-08-17T15:46:06;99768.53;;;33.18;35.94
9035;BME280;4552;43.422;24.592;2023-08-17T15:48:33;99747.50;;;33.04;36.49
9035;BME280;4552;43.422;24.592;2023-08-17T15:51:02;99755.81;;;33.11;36.70
9035;BME280;4552;43.422;24.592;2023-08-17T15:53:29;99752.59;;;33.15;36.45
9035;BME280;4552;43.422;24.592;2023-08-17T15:55:56;99752.59;;;33.15;36.09
9035;BME280;4552;43.422;24.592;2023-08-17T16:08:31;99759.38;;;33.03;36.58
9035;BME280;4552;43.422;24.592;2023-08-17T16:10:58;99754.28;;;33.00;36.09
9035;BME280;4552;43.422;24.592;2023-08-17T16:19:32;99772.59;;;32.90;36.65
9035;BME280;4552;43.422;24.592;2023-08-17T16:21:59;99773.03;;;32.78;37.31
9035;BME280;4552;43.422;24.592;2023-08-17T16:24:28;99774.88;;;32.77;37.40
9035;BME280;4552;43.422;24.592;2023-08-17T16:26:55;99778.78;;;32.75;37.14
9035;BME280;4552;43.422;24.592;2023-08-17T16:56:18;99785.34;;;31.97;38.19
9035;BME280;4552;43.422;24.592;2023-08-17T16:58:45;99780.59;;;31.91;38.32
9035;BME280;4552;43.422;24.592;2023-08-17T17:01:12;99778.22;;;31.96;38.32
9035;BME280;4552;43.422;24.592;2023-08-17T17:03:42;99790.72;;;31.89;37.84
9035;BME280;4552;43.422;24.592;2023-08-17T17:06:10;99786.00;;;31.91;37.84
9035;BME280;4552;43.422;24.592;2023-08-17T17:08:37;99768.66;;;31.84;38.21
9035;BME280;4552;43.422;24.592;2023-08-17T17:11:04;99781.81;;;31.79;38.53
9035;BME280;4552;43.422;24.592;2023-08-17T17:13:35;99785.38;;;31.79;38.44
9035;BME280;4552;43.422;24.592;2023-08-17T17:16:03;99785.31;;;31.89;38.44
9035;BME280;4552;43.422;24.592;2023-08-17T17:18:30;99780.09;;;31.78;38.96
9035;BME280;4552;43.422;24.592;2023-08-17T17:20:57;99782.44;;;31.73;38.71
9035;BME280;4552;43.422;24.592;2023-08-17T17:23:34;99785.78;;;31.67;38.27
9035;BME280;4552;43.422;24.592;2023-08-17T18:23:13;99817.28;;;30.34;43.02
9035;BME280;4552;43.422;24.592;2023-08-17T18:25:41;99819.03;;;30.25;43.78
9035;BME280;4552;43.422;24.592;2023-08-17T18:28:11;99825.84;;;30.29;43.18
9035;BME280;4552;43.422;24.592;2023-08-17T18:30:38;99833.34;;;30.36;43.28
9035;BME280;4552;43.422;24.592;2023-08-17T18:33:05;99830.94;;;30.33;43.77
9035;BME280;4552;43.422;24.592;2023-08-17T18:35:32;99826.72;;;30.20;44.17
9035;BME280;4552;43.422;24.592;2023-08-17T18:37:59;99831.25;;;30.29;43.92
9035;BME280;4552;43.422;24.592;2023-08-17T19:07:26;99832.78;;;29.76;46.51
9035;BME280;4552;43.422;24.592;2023-08-17T19:09:53;99828.25;;;29.77;46.36
9035;BME280;4552;43.422;24.592;2023-08-17T19:12:20;99830.50;;;29.81;45.98
9035;BME280;4552;43.422;24.592;2023-08-17T19:14:47;99824.97;;;29.83;46.27
9035;BME280;4552;43.422;24.592;2023-08-17T19:17:14;99826.69;;;29.74;46.28
9035;BME280;4552;43.422;24.592;2023-08-17T19:19:42;99837.63;;;29.73;46.71
9035;BME280;4552;43.422;24.592;2023-08-17T19:22:09;99840.59;;;29.70;47.18
9035;BME280;4552;43.422;24.592;2023-08-17T19:24:39;99838.06;;;29.68;47.04
9035;BME280;4552;43.422;24.592;2023-08-17T19:27:06;99842.03;;;29.64;47.54
9035;BME280;4552;43.422;24.592;2023-08-17T19:29:33;99832.22;;;29.54;47.71
9035;BME280;4552;43.422;24.592;2023-08-17T19:32:00;99842.47;;;29.69;47.40
9035;BME280;4552;43.422;24.592;2023-08-17T19:34:27;99843.88;;;29.54;47.99
9035;BME280;4552;43.422;24.592;2023-08-17T19:36:54;99839.91;;;29.68;47.65
9035;BME280;4552;43.422;24.592;2023-08-17T19:39:21;99846.97;;;29.59;47.93
9035;BME280;4552;43.422;24.592;2023-08-17T19:41:50;99841.72;;;29.48;48.07
9035;BME280;4552;43.422;24.592;2023-08-17T19:44:17;99846.00;;;29.41;48.96
9035;BME280;4552;43.422;24.592;2023-08-17T19:46:44;99839.03;;;29.48;47.89
9035;BME280;4552;43.422;24.592;2023-08-17T19:49:10;99843.59;;;29.38;49.33
9035;BME280;4552;43.422;24.592;2023-08-17T19:51:37;99836.06;;;29.32;49.18
9035;BME280;4552;43.422;24.592;2023-08-17T19:54:05;99838.19;;;29.38;48.70
9035;BME280;4552;43.422;24.592;2023-08-17T19:56:32;99837.91;;;29.22;49.61
9035;BME280;4552;43.422;24.592;2023-08-17T19:59:00;99843.03;;;29.25;49.72
9035;BME280;4552;43.422;24.592;2023-08-17T20:01:27;99833.63;;;29.10;50.05
9035;BME280;4552;43.422;24.592;2023-08-17T20:03:55;99830.81;;;29.31;49.93
9035;BME280;4552;43.422;24.592;2023-08-17T20:16:48;99825.94;;;28.96;50.84
9035;BME280;4552;43.422;24.592;2023-08-17T20:19:15;99833.50;;;29.21;50.08
9035;BME280;4552;43.422;24.592;2023-08-17T20:21:42;99834.72;;;28.98;51.01
9035;BME280;4552;43.422;24.592;2023-08-17T20:24:09;99831.44;;;28.85;51.52
9035;BME280;4552;43.422;24.592;2023-08-17T20:26:37;99830.97;;;28.70;52.21
9035;BME280;4552;43.422;24.592;2023-08-17T20:29:04;99841.03;;;28.68;52.00
9035;BME280;4552;43.422;24.592;2023-08-17T20:31:31;99818.69;;;28.47;52.78
9035;BME280;4552;43.422;24.592;2023-08-17T20:33:59;99827.81;;;28.35;53.01
9035;BME280;4552;43.422;24.592;2023-08-17T20:36:26;99833.81;;;28.39;53.30
9035;BME280;4552;43.422;24.592;2023-08-17T20:38:53;99834.25;;;28.44;53.59
9035;BME280;4552;43.422;24.592;2023-08-17T20:41:20;99825.94;;;28.26;54.28
9035;BME280;4552;43.422;24.592;2023-08-17T20:43:47;99831.78;;;28.31;53.55
9035;BME280;4552;43.422;24.592;2023-08-17T20:46:14;99833.44;;;28.23;54.29
9035;BME280;4552;43.422;24.592;2023-08-17T20:48:41;99829.84;;;28.13;54.76
9035;BME280;4552;43.422;24.592;2023-08-17T20:51:09;99826.75;;;28.17;54.88
9035;BME280;4552;43.422;24.592;2023-08-17T20:53:36;99838.13;;;28.21;55.10
9035;BME280;4552;43.422;24.592;2023-08-17T20:56:03;99825.28;;;28.04;54.95
9035;BME280;4552;43.422;24.592;2023-08-17T20:58:30;99831.00;;;28.20;54.78
9035;BME280;4552;43.422;24.592;2023-08-17T21:00:58;99841.28;;;28.26;54.43
9035;BME280;4552;43.422;24.592;2023-08-17T21:03:24;99834.81;;;28.38;54.16
9035;BME280;4552;43.422;24.592;2023-08-17T21:05:51;99839.28;;;28.28;54.79
9035;BME280;4552;43.422;24.592;2023-08-17T21:08:20;99828.78;;;28.25;54.48
9035;BME280;4552;43.422;24.592;2023-08-17T21:14:32;99835.03;;;28.05;55.19
9035;BME280;4552;43.422;24.592;2023-08-17T21:16:59;99830.34;;;27.97;55.26
9035;BME280;4552;43.422;24.592;2023-08-17T21:19:26;99836.03;;;28.04;55.34
9035;BME280;4552;43.422;24.592;2023-08-17T21:21:53;99831.66;;;28.03;55.06
9035;BME280;4552;43.422;24.592;2023-08-17T21:24:21;99841.09;;;27.97;55.21
9035;BME280;4552;43.422;24.592;2023-08-17T21:26:48;99839.53;;;27.95;55.47
9035;BME280;4552;43.422;24.592;2023-08-17T21:29:15;99841.69;;;28.01;55.63
9035;BME280;4552;43.422;24.592;2023-08-17T21:31:42;99842.53;;;27.81;55.99
9035;BME280;4552;43.422;24.592;2023-08-17T21:34:10;99843.66;;;27.78;56.13
9035;BME280;4552;43.422;24.592;2023-08-17T21:36:37;99836.41;;;27.79;56.16
9035;BME280;4552;43.422;24.592;2023-08-17T21:39:04;99849.09;;;27.88;55.80
9035;BME280;4552;43.422;24.592;2023-08-17T21:41:32;99846.53;;;27.66;56.06
9035;BME280;4552;43.422;24.592;2023-08-17T21:43:59;99841.53;;;27.82;55.32
9035;BME280;4552;43.422;24.592;2023-08-17T21:46:26;99844.31;;;27.71;55.98
9035;BME280;4552;43.422;24.592;2023-08-17T21:48:53;99856.84;;;27.81;55.76
9035;BME280;4552;43.422;24.592;2023-08-17T21:51:20;99850.19;;;27.85;55.22
9035;BME280;4552;43.422;24.592;2023-08-17T21:53:47;99849.47;;;27.83;54.79
9035;BME280;4552;43.422;24.592;2023-08-17T21:56:14;99842.91;;;27.76;54.77
9035;BME280;4552;43.422;24.592;2023-08-17T21:58:43;99859.50;;;27.92;55.13
9035;BME280;4552;43.422;24.592;2023-08-17T22:01:11;99863.50;;;27.98;54.42
9035;BME280;4552;43.422;24.592;2023-08-17T22:03:38;99842.50;;;27.92;53.93
9035;BME280;4552;43.422;24.592;2023-08-17T22:06:05;99853.69;;;27.76;54.35
9035;BME280;4552;43.422;24.592;2023-08-17T22:08:32;99868.19;;;27.85;54.96
9035;BME280;4552;43.422;24.592;2023-08-17T22:10:59;99852.69;;;27.77;54.56
9035;BME280;4552;43.422;24.592;2023-08-17T22:13:27;99863.91;;;27.82;55.00
9035;BME280;4552;43.422;24.592;2023-08-17T22:15:55;99865.31;;;27.77;54.60
9035;BME280;4552;43.422;24.592;2023-08-17T22:18:22;99871.00;;;27.83;54.38
9035;BME280;4552;43.422;24.592;2023-08-17T22:20:49;99863.66;;;27.85;54.32
9035;BME280;4552;43.422;24.592;2023-08-17T22:23:16;99865.75;;;27.82;54.39
9035;BME280;4552;43.422;24.592;2023-08-17T22:35:50;99874.72;;;27.51;55.16
9035;BME280;4552;43.422;24.592;2023-08-17T22:38:17;99867.69;;;27.39;55.52
9035;BME280;4552;43.422;24.592;2023-08-17T23:00:58;99877.13;;;27.22;56.29
9035;BME280;4552;43.422;24.592;2023-08-17T23:03:25;99874.59;;;27.09;56.82
9035;BME280;4552;43.422;24.592;2023-08-17T23:05:52;99874.13;;;27.04;57.27
9035;BME280;4552;43.422;24.592;2023-08-17T23:08:19;99871.06;;;26.98;57.56
9035;BME280;4552;43.422;24.592;2023-08-17T23:10:46;99870.72;;;26.91;57.62
9035;BME280;4552;43.422;24.592;2023-08-17T23:13:13;99872.59;;;26.80;58.77